sensor_id;sensor_type;location;lat;lon;timestamp;temperature;humidity
74294;DHT22;64044;59.904;10.738;2023-11-18T00:01:08;-2.10;63.20
74294;DHT22;64044;59.904;10.738;2023-11-18T00:03:34;-2.10;63.30
74294;DHT22;64044;59.904;10.738;2023-11-18T00:06:00;-2.10;63.40
74294;DHT22;64044;59.904;10.738;2023-11-18T00:08:26;-2.10;63.30
74294;DHT22;64044;59.904;10.738;2023-11-18T00:10:52;-2.10;63.10
74294;DHT22;64044;59.904;10.738;2023-11-18T00:13:17;-2.10;63.20
74294;DHT22;64044;59.904;10.738;2023-11-18T00:15:43;-2.20;62.90
74294;DHT22;64044;59.904;10.738;2023-11-18T00:18:11;-2.20;63.00
74294;DHT22;64044;59.904;10.738;2023-11-18T00:20:37;-2.20;63.30
74294;DHT22;64044;59.904;10.738;2023-11-18T00:23:03;-2.20;63.20
74294;DHT22;64044;59.904;10.738;2023-11-18T00:25:30;-2.20;63.40
74294;DHT22;64044;59.904;10.738;2023-11-18T00:27:55;-2.20;63.30
74294;DHT22;64044;59.904;10.738;2023-11-18T00:30:22;-2.20;63.50
74294;DHT22;64044;59.904;10.738;2023-11-18T00:32:47;-2.20;63.50
74294;DHT22;64044;59.904;10.738;2023-11-18T00:35:13;-2.30;63.40
74294;DHT22;64044;59.904;10.738;2023-11-18T00:37:40;-2.30;63.50
74294;DHT22;64044;59.904;10.738;2023-11-18T00:40:07;-2.30;63.50
74294;DHT22;64044;59.904;10.738;2023-11-18T00:42:34;-2.30;63.70
74294;DHT22;64044;59.904;10.738;2023-11-18T00:45:00;-2.30;63.50
74294;DHT22;64044;59.904;10.738;2023-11-18T00:47:26;-2.30;63.40
74294;DHT22;64044;59.904;10.738;2023-11-18T00:49:51;-2.30;63.60
74294;DHT22;64044;59.904;10.738;2023-11-18T00:52:18;-2.30;63.70
74294;DHT22;64044;59.904;10.738;2023-11-18T00:54:44;-2.30;63.90
74294;DHT22;64044;59.904;10.738;2023-11-18T00:57:10;-2.30;64.00
74294;DHT22;64044;59.904;10.738;2023-11-18T00:59:36;-2.30;64.10
74294;DHT22;64044;59.904;10.738;2023-11-18T01:02:03;-2.40;64.10
74294;DHT22;64044;59.904;10.738;2023-11-18T01:04:29;-2.40;64.10
74294;DHT22;64044;59.904;10.738;2023-11-18T01:06:54;-2.40;64.20
74294;DHT22;64044;59.904;10.738;2023-11-18T01:09:23;-2.40;64.10
74294;DHT22;64044;59.904;10.738;2023-11-18T01:11:49;-2.40;64.10
74294;DHT22;64044;59.904;10.738;2023-11-18T01:14:15;-2.40;64.10
74294;DHT22;64044;59.904;10.738;2023-11-18T01:16:43;-2.40;63.90
74294;DHT22;64044;59.904;10.738;2023-11-18T01:19:09;-2.40;64.00
74294;DHT22;64044;59.904;10.738;2023-11-18T01:21:35;-2.50;63.90
74294;DHT22;64044;59.904;10.738;2023-11-18T01:24:02;-2.50;63.90
74294;DHT22;64044;59.904;10.738;2023-11-18T01:26:28;-2.50;63.80
74294;DHT22;64044;59.904;10.738;2023-11-18T01:28:53;-2.50;63.80
74294;DHT22;64044;59.904;10.738;2023-11-18T01:31:21;-2.50;63.90
74294;DHT22;64044;59.904;10.738;2023-11-18T01:33:47;-2.50;63.80
74294;DHT22;64044;59.904;10.738;2023-11-18T01:36:15;-2.50;63.90
74294;DHT22;64044;59.904;10.738;2023-11-18T01:38:43;-2.50;64.00
74294;DHT22;64044;59.904;10.738;2023-11-18T01:41:09;-2.50;64.00
74294;DHT22;64044;59.904;10.738;2023-11-18T01:43:34;-2.60;64.20
74294;DHT22;64044;59.904;10.738;2023-11-18T01:46:03;-2.50;64.30
74294;DHT22;64044;59.904;10.738;2023-11-18T01:48:31;-2.60;64.50
74294;DHT22;64044;59.904;10.738;2023-11-18T01:50:59;-2.60;65.30
74294;DHT22;64044;59.904;10.738;2023-11-18T01:53:26;-2.60;64.60
74294;DHT22;64044;59.904;10.738;2023-11-18T01:55:53;-2.60;64.50
74294;DHT22;64044;59.904;10.738;2023-11-18T01:58:20;-2.60;64.30
74294;DHT22;64044;59.904;10.738;2023-11-18T02:00:50;-2.60;64.20
74294;DHT22;64044;59.904;10.738;2023-11-18T02:03:17;-2.60;64.20
74294;DHT22;64044;59.904;10.738;2023-11-18T02:05:43;-2.60;64.10
74294;DHT22;64044;59.904;10.738;2023-11-18T02:08:10;-2.70;64.10
74294;DHT22;64044;59.904;10.738;2023-11-18T02:10:51;-2.70;64.10
74294;DHT22;64044;59.904;10.738;2023-11-18T02:13:25;-2.70;64.10
74294;DHT22;64044;59.904;10.738;2023-11-18T02:15:59;-2.70;64.10
74294;DHT22;64044;59.904;10.738;2023-11-18T02:18:31;-2.70;64.20
74294;DHT22;64044;59.904;10.738;2023-11-18T02:20:59;-2.70;64.30
74294;DHT22;64044;59.904;10.738;2023-11-18T02:23:25;-2.70;64.30
74294;DHT22;64044;59.904;10.738;2023-11-18T02:25:54;-2.80;64.40
74294;DHT22;64044;59.904;10.738;2023-11-18T02:28:23;-2.70;64.40
74294;DHT22;64044;59.904;10.738;2023-11-18T02:30:56;-2.80;64.40
74294;DHT22;64044;59.904;10.738;2023-11-18T02:33:51;-2.80;64.60
74294;DHT22;64044;59.904;10.738;2023-11-18T02:39:12;-2.80;64.20
74294;DHT22;64044;59.904;10.738;2023-11-18T02:41:45;-2.80;64.20
74294;DHT22;64044;59.904;10.738;2023-11-18T02:44:13;-2.90;64.00
74294;DHT22;64044;59.904;10.738;2023-11-18T02:46:43;-2.90;64.10
74294;DHT22;64044;59.904;10.738;2023-11-18T02:49:09;-2.90;64.00
74294;DHT22;64044;59.904;10.738;2023-11-18T02:51:35;-2.90;64.10
74294;DHT22;64044;59.904;10.738;2023-11-18T02:54:08;-2.90;64.20
74294;DHT22;64044;59.904;10.738;2023-11-18T02:56:39;-2.90;64.30
74294;DHT22;64044;59.904;10.738;2023-11-18T02:59:05;-2.90;64.20
74294;DHT22;64044;59.904;10.738;2023-11-18T03:01:32;-3.00;64.40
74294;DHT22;64044;59.904;10.738;2023-11-18T03:04:02;-3.00;64.70
74294;DHT22;64044;59.904;10.738;2023-11-18T03:06:28;-3.00;64.70
74294;DHT22;64044;59.904;10.738;2023-11-18T03:08:53;-3.00;64.70
74294;DHT22;64044;59.904;10.738;2023-11-18T03:11:20;-3.00;64.80
74294;DHT22;64044;59.904;10.738;2023-11-18T03:13:45;-3.00;65.00
74294;DHT22;64044;59.904;10.738;2023-11-18T03:16:14;-3.00;64.90
74294;DHT22;64044;59.904;10.738;2023-11-18T03:18:40;-3.00;64.90
74294;DHT22;64044;59.904;10.738;2023-11-18T03:21:15;-3.00;65.30
74294;DHT22;64044;59.904;10.738;2023-11-18T03:23:41;-3.10;65.50
74294;DHT22;64044;59.904;10.738;2023-11-18T03:26:10;-3.10;65.30
74294;DHT22;64044;59.904;10.738;2023-11-18T03:28:37;-3.10;65.50
74294;DHT22;64044;59.904;10.738;2023-11-18T03:31:06;-3.10;65.60
74294;DHT22;64044;59.904;10.738;2023-11-18T03:33:32;-3.10;65.50
74294;DHT22;64044;59.904;10.738;2023-11-18T03:35:58;-3.10;65.40
74294;DHT22;64044;59.904;10.738;2023-11-18T03:38:24;-3.10;65.70
74294;DHT22;64044;59.904;10.738;2023-11-18T03:40:50;-3.10;65.90
74294;DHT22;64044;59.904;10.738;2023-11-18T03:43:18;-3.20;65.80
74294;DHT22;64044;59.904;10.738;2023-11-18T03:45:44;-3.20;65.50
74294;DHT22;64044;59.904;10.738;2023-11-18T03:48:09;-3.20;65.60
74294;DHT22;64044;59.904;10.738;2023-11-18T03:50:40;-3.20;65.40
74294;DHT22;64044;59.904;10.738;2023-11-18T03:53:06;-3.20;65.30
74294;DHT22;64044;59.904;10.738;2023-11-18T03:55:32;-3.30;65.00
74294;DHT22;64044;59.904;10.738;2023-11-18T03:57:59;-3.30;65.00
74294;DHT22;64044;59.904;10.738;2023-11-18T04:00:25;-3.30;64.80
74294;DHT22;64044;59.904;10.738;2023-11-18T04:03:00;-3.30;65.30
74294;DHT22;64044;59.904;10.738;2023-11-18T04:05:26;-3.30;65.40
74294;DHT22;64044;59.904;10.738;2023-11-18T04:07:51;-3.40;65.50
74294;DHT22;64044;59.904;10.738;2023-11-18T04:10:17;-3.40;65.60
74294;DHT22;64044;59.904;10.738;2023-11-18T04:12:44;-3.40;65.60
74294;DHT22;64044;59.904;10.738;2023-11-18T04:15:14;-3.40;65.80
74294;DHT22;64044;59.904;10.738;2023-11-18T04:17:39;-3.40;66.10
74294;DHT22;64044;59.904;10.738;2023-11-18T04:20:06;-3.40;65.70
74294;DHT22;64044;59.904;10.738;2023-11-18T04:22:40;-3.40;65.80
74294;DHT22;64044;59.904;10.738;2023-11-18T04:25:08;-3.40;65.80
74294;DHT22;64044;59.904;10.738;2023-11-18T04:27:33;-3.40;65.80
74294;DHT22;64044;59.904;10.738;2023-11-18T04:29:59;-3.40;65.70
74294;DHT22;64044;59.904;10.738;2023-11-18T04:32:25;-3.40;65.70
74294;DHT22;64044;59.904;10.738;2023-11-18T04:34:50;-3.40;65.60
74294;DHT22;64044;59.904;10.738;2023-11-18T04:37:16;-3.40;65.80
74294;DHT22;64044;59.904;10.738;2023-11-18T04:39:43;-3.40;66.00
74294;DHT22;64044;59.904;10.738;2023-11-18T04:42:08;-3.40;66.10
74294;DHT22;64044;59.904;10.738;2023-11-18T04:44:34;-3.40;66.20
74294;DHT22;64044;59.904;10.738;2023-11-18T04:47:00;-3.40;66.30
74294;DHT22;64044;59.904;10.738;2023-11-18T04:49:26;-3.40;66.40
74294;DHT22;64044;59.904;10.738;2023-11-18T04:51:52;-3.40;66.00
74294;DHT22;64044;59.904;10.738;2023-11-18T04:54:18;-3.40;65.50
74294;DHT22;64044;59.904;10.738;2023-11-18T04:56:45;-3.40;65.30
74294;DHT22;64044;59.904;10.738;2023-11-18T04:59:10;-3.40;65.40
74294;DHT22;64044;59.904;10.738;2023-11-18T05:01:36;-3.40;65.40
74294;DHT22;64044;59.904;10.738;2023-11-18T05:04:03;-3.50;65.20
74294;DHT22;64044;59.904;10.738;2023-11-18T05:06:29;-3.50;65.10
74294;DHT22;64044;59.904;10.738;2023-11-18T05:08:55;-3.50;65.00
74294;DHT22;64044;59.904;10.738;2023-11-18T05:11:20;-3.50;65.00
74294;DHT22;64044;59.904;10.738;2023-11-18T05:13:46;-3.50;64.90
74294;DHT22;64044;59.904;10.738;2023-11-18T05:16:12;-3.50;65.70
74294;DHT22;64044;59.904;10.738;2023-11-18T05:18:37;-3.50;65.00
74294;DHT22;64044;59.904;10.738;2023-11-18T05:21:05;-3.50;64.90
74294;DHT22;64044;59.904;10.738;2023-11-18T05:23:31;-3.60;64.90
74294;DHT22;64044;59.904;10.738;2023-11-18T05:25:57;-3.60;64.70
74294;DHT22;64044;59.904;10.738;2023-11-18T05:28:51;-3.60;64.80
74294;DHT22;64044;59.904;10.738;2023-11-18T05:31:17;-3.60;64.80
74294;DHT22;64044;59.904;10.738;2023-11-18T05:33:44;-3.60;64.70
74294;DHT22;64044;59.904;10.738;2023-11-18T05:36:15;-3.60;64.90
74294;DHT22;64044;59.904;10.738;2023-11-18T05:38:40;-3.60;64.90
74294;DHT22;64044;59.904;10.738;2023-11-18T05:41:07;-3.60;64.90
74294;DHT22;64044;59.904;10.738;2023-11-18T05:43:42;-3.60;64.90
74294;DHT22;64044;59.904;10.738;2023-11-18T05:46:16;-3.60;64.90
74294;DHT22;64044;59.904;10.738;2023-11-18T05:48:43;-3.60;65.10
74294;DHT22;64044;59.904;10.738;2023-11-18T05:51:09;-3.70;65.30
74294;DHT22;64044;59.904;10.738;2023-11-18T05:53:40;-3.70;65.40
74294;DHT22;64044;59.904;10.738;2023-11-18T05:56:07;-3.70;65.70
74294;DHT22;64044;59.904;10.738;2023-11-18T05:58:33;-3.60;65.90
74294;DHT22;64044;59.904;10.738;2023-11-18T06:00:58;-3.60;66.20
74294;DHT22;64044;59.904;10.738;2023-11-18T06:03:25;-3.60;66.20
74294;DHT22;64044;59.904;10.738;2023-11-18T06:05:52;-3.60;66.10
74294;DHT22;64044;59.904;10.738;2023-11-18T06:08:17;-3.70;66.20
74294;DHT22;64044;59.904;10.738;2023-11-18T06:10:43;-3.60;66.30
74294;DHT22;64044;59.904;10.738;2023-11-18T06:13:10;-3.70;66.20
74294;DHT22;64044;59.904;10.738;2023-11-18T06:15:38;-3.60;66.30
74294;DHT22;64044;59.904;10.738;2023-11-18T06:18:05;-3.60;66.30
74294;DHT22;64044;59.904;10.738;2023-11-18T06:20:33;-3.60;66.30
74294;DHT22;64044;59.904;10.738;2023-11-18T06:22:59;-3.50;66.40
74294;DHT22;64044;59.904;10.738;2023-11-18T06:25:25;-3.50;66.50
74294;DHT22;64044;59.904;10.738;2023-11-18T06:27:51;-3.50;66.50
74294;DHT22;64044;59.904;10.738;2023-11-18T06:30:18;-3.40;66.40
74294;DHT22;64044;59.904;10.738;2023-11-18T06:32:45;-3.40;66.20
74294;DHT22;64044;59.904;10.738;2023-11-18T06:35:14;-3.40;66.00
74294;DHT22;64044;59.904;10.738;2023-11-18T06:37:40;-3.30;65.80
74294;DHT22;64044;59.904;10.738;2023-11-18T06:40:07;-3.30;65.70
74294;DHT22;64044;59.904;10.738;2023-11-18T06:42:42;-3.30;66.40
74294;DHT22;64044;59.904;10.738;2023-11-18T06:45:09;-3.30;65.50
74294;DHT22;64044;59.904;10.738;2023-11-18T06:47:35;-3.30;65.50
74294;DHT22;64044;59.904;10.738;2023-11-18T06:50:02;-3.30;65.50
74294;DHT22;64044;59.904;10.738;2023-11-18T06:52:27;-3.20;65.70
74294;DHT22;64044;59.904;10.738;2023-11-18T06:54:54;-3.20;65.70
74294;DHT22;64044;59.904;10.738;2023-11-18T06:57:20;-3.20;65.70
74294;DHT22;64044;59.904;10.738;2023-11-18T06:59:47;-3.20;65.40
74294;DHT22;64044;59.904;10.738;2023-11-18T07:02:14;-3.20;65.40
74294;DHT22;64044;59.904;10.738;2023-11-18T07:04:41;-3.10;65.40
74294;DHT22;64044;59.904;10.738;2023-11-18T07:07:06;-3.10;65.20
74294;DHT22;64044;59.904;10.738;2023-11-18T07:09:34;-3.10;65.20
74294;DHT22;64044;59.904;10.738;2023-11-18T07:12:02;-3.10;65.20
74294;DHT22;64044;59.904;10.738;2023-11-18T07:14:29;-3.10;65.10
74294;DHT22;64044;59.904;10.738;2023-11-18T07:16:55;-3.10;65.10
74294;DHT22;64044;59.904;10.738;2023-11-18T07:19:20;-3.10;65.00
74294;DHT22;64044;59.904;10.738;2023-11-18T07:21:47;-3.10;64.80
74294;DHT22;64044;59.904;10.738;2023-11-18T07:24:12;-3.10;64.70
74294;DHT22;64044;59.904;10.738;2023-11-18T07:26:38;-3.10;64.70
74294;DHT22;64044;59.904;10.738;2023-11-18T07:29:04;-3.10;64.50
74294;DHT22;64044;59.904;10.738;2023-11-18T07:31:33;-3.10;64.50
74294;DHT22;64044;59.904;10.738;2023-11-18T07:34:03;-3.10;64.40
74294;DHT22;64044;59.904;10.738;2023-11-18T07:36:28;-3.10;64.40
74294;DHT22;64044;59.904;10.738;2023-11-18T07:38:54;-3.10;64.40
74294;DHT22;64044;59.904;10.738;2023-11-18T07:41:20;-3.10;64.50
74294;DHT22;64044;59.904;10.738;2023-11-18T07:43:52;-3.10;64.60
74294;DHT22;64044;59.904;10.738;2023-11-18T07:46:24;-3.10;64.60
74294;DHT22;64044;59.904;10.738;2023-11-18T07:48:51;-3.10;64.70
74294;DHT22;64044;59.904;10.738;2023-11-18T07:51:21;-3.10;64.70
74294;DHT22;64044;59.904;10.738;2023-11-18T07:53:48;-3.10;64.90
74294;DHT22;64044;59.904;10.738;2023-11-18T07:56:14;-3.10;65.00
74294;DHT22;64044;59.904;10.738;2023-11-18T07:58:42;-3.10;65.20
74294;DHT22;64044;59.904;10.738;2023-11-18T08:01:11;-3.10;65.90
74294;DHT22;64044;59.904;10.738;2023-11-18T08:03:37;-3.10;65.10
74294;DHT22;64044;59.904;10.738;2023-11-18T08:06:04;-3.10;65.30
74294;DHT22;64044;59.904;10.738;2023-11-18T08:08:32;-3.10;65.60
74294;DHT22;64044;59.904;10.738;2023-11-18T08:10:58;-3.10;65.40
74294;DHT22;64044;59.904;10.738;2023-11-18T08:13:25;-3.10;65.60
74294;DHT22;64044;59.904;10.738;2023-11-18T08:15:54;-3.10;66.10
74294;DHT22;64044;59.904;10.738;2023-11-18T08:18:19;-3.10;66.00
74294;DHT22;64044;59.904;10.738;2023-11-18T08:20:47;-3.10;66.00
74294;DHT22;64044;59.904;10.738;2023-11-18T08:23:12;-3.10;66.00
74294;DHT22;64044;59.904;10.738;2023-11-18T08:25:38;-3.10;65.90
74294;DHT22;64044;59.904;10.738;2023-11-18T08:28:06;-3.20;65.90
74294;DHT22;64044;59.904;10.738;2023-11-18T08:30:33;-3.10;65.80
74294;DHT22;64044;59.904;10.738;2023-11-18T08:32:59;-3.10;65.60
74294;DHT22;64044;59.904;10.738;2023-11-18T08:35:25;-3.10;65.70
74294;DHT22;64044;59.904;10.738;2023-11-18T08:37:51;-3.10;65.80
74294;DHT22;64044;59.904;10.738;2023-11-18T08:40:18;-3.10;65.70
74294;DHT22;64044;59.904;10.738;2023-11-18T08:42:50;-3.10;65.50
74294;DHT22;64044;59.904;10.738;2023-11-18T08:45:16;-3.10;65.40
74294;DHT22;64044;59.904;10.738;2023-11-18T08:47:46;-3.10;65.70
74294;DHT22;64044;59.904;10.738;2023-11-18T08:50:16;-3.10;65.20
74294;DHT22;64044;59.904;10.738;2023-11-18T08:52:46;-3.10;65.10
74294;DHT22;64044;59.904;10.738;2023-11-18T08:55:16;-3.10;65.00
74294;DHT22;64044;59.904;10.738;2023-11-18T08:57:51;-3.10;65.10
74294;DHT22;64044;59.904;10.738;2023-11-18T09:00:30;-3.00;65.20
74294;DHT22;64044;59.904;10.738;2023-11-18T09:03:16;-3.00;65.00
74294;DHT22;64044;59.904;10.738;2023-11-18T09:06:00;-3.00;65.00
74294;DHT22;64044;59.904;10.738;2023-11-18T09:08:36;-3.00;64.80
74294;DHT22;64044;59.904;10.738;2023-11-18T09:11:02;-2.90;64.70
74294;DHT22;64044;59.904;10.738;2023-11-18T09:13:30;-2.90;64.60
74294;DHT22;64044;59.904;10.738;2023-11-18T09:16:04;-2.90;64.60
74294;DHT22;64044;59.904;10.738;2023-11-18T09:18:33;-2.90;64.50
74294;DHT22;64044;59.904;10.738;2023-11-18T09:21:01;-2.80;64.60
74294;DHT22;64044;59.904;10.738;2023-11-18T09:23:28;-2.80;64.70
74294;DHT22;64044;59.904;10.738;2023-11-18T09:25:54;-2.80;64.80
74294;DHT22;64044;59.904;10.738;2023-11-18T09:28:21;-2.70;65.00
74294;DHT22;64044;59.904;10.738;2023-11-18T09:30:48;-2.70;65.00
74294;DHT22;64044;59.904;10.738;2023-11-18T09:33:24;-2.60;64.90
74294;DHT22;64044;59.904;10.738;2023-11-18T09:36:04;-2.50;64.80
74294;DHT22;64044;59.904;10.738;2023-11-18T09:38:35;-2.50;64.60
74294;DHT22;64044;59.904;10.738;2023-11-18T09:41:03;-2.40;64.70
74294;DHT22;64044;59.904;10.738;2023-11-18T09:43:33;-2.40;64.40
74294;DHT22;64044;59.904;10.738;2023-11-18T09:46:11;-2.30;64.20
74294;DHT22;64044;59.904;10.738;2023-11-18T09:51:07;-2.20;64.30
74294;DHT22;64044;59.904;10.738;2023-11-18T09:53:37;-2.20;64.40
74294;DHT22;64044;59.904;10.738;2023-11-18T09:56:11;-2.10;64.40
74294;DHT22;64044;59.904;10.738;2023-11-18T09:58:49;-2.00;64.30
74294;DHT22;64044;59.904;10.738;2023-11-18T10:01:18;-1.90;64.20
74294;DHT22;64044;59.904;10.738;2023-11-18T10:03:47;-1.70;64.30
74294;DHT22;64044;59.904;10.738;2023-11-18T10:06:16;-1.60;64.30
74294;DHT22;64044;59.904;10.738;2023-11-18T10:08:41;-1.40;64.40
74294;DHT22;64044;59.904;10.738;2023-11-18T10:11:12;-1.20;64.50
74294;DHT22;64044;59.904;10.738;2023-11-18T10:13:39;-1.00;64.70
74294;DHT22;64044;59.904;10.738;2023-11-18T10:16:07;-0.80;64.60
74294;DHT22;64044;59.904;10.738;2023-11-18T10:18:58;-0.50;64.50
74294;DHT22;64044;59.904;10.738;2023-11-18T10:21:35;-0.20;63.30
74294;DHT22;64044;59.904;10.738;2023-11-18T10:24:06;0.00;63.20
74294;DHT22;64044;59.904;10.738;2023-11-18T10:26:45;0.30;62.60
74294;DHT22;64044;59.904;10.738;2023-11-18T10:29:11;0.40;62.10
74294;DHT22;64044;59.904;10.738;2023-11-18T10:31:39;0.50;61.50
74294;DHT22;64044;59.904;10.738;2023-11-18T10:34:12;0.60;61.10
74294;DHT22;64044;59.904;10.738;2023-11-18T10:36:41;0.70;61.20
74294;DHT22;64044;59.904;10.738;2023-11-18T10:39:11;0.70;60.80
74294;DHT22;64044;59.904;10.738;2023-11-18T10:41:42;0.80;60.80
74294;DHT22;64044;59.904;10.738;2023-11-18T10:44:09;0.80;60.70
74294;DHT22;64044;59.904;10.738;2023-11-18T10:46:59;0.90;60.60
74294;DHT22;64044;59.904;10.738;2023-11-18T10:49:27;1.00;60.30
74294;DHT22;64044;59.904;10.738;2023-11-18T10:51:53;1.10;60.90
74294;DHT22;64044;59.904;10.738;2023-11-18T10:54:21;1.20;60.80
74294;DHT22;64044;59.904;10.738;2023-11-18T10:56:50;1.30;60.70
74294;DHT22;64044;59.904;10.738;2023-11-18T10:59:16;1.40;60.70
74294;DHT22;64044;59.904;10.738;2023-11-18T11:01:44;1.60;61.00
74294;DHT22;64044;59.904;10.738;2023-11-18T11:04:14;1.80;60.90
74294;DHT22;64044;59.904;10.738;2023-11-18T11:06:49;2.00;60.40
74294;DHT22;64044;59.904;10.738;2023-11-18T11:09:22;2.20;59.90
74294;DHT22;64044;59.904;10.738;2023-11-18T11:14:23;2.50;59.30
74294;DHT22;64044;59.904;10.738;2023-11-18T11:17:04;2.60;58.90
74294;DHT22;64044;59.904;10.738;2023-11-18T11:22:17;2.70;58.00
74294;DHT22;64044;59.904;10.738;2023-11-18T11:25:16;2.80;58.00
74294;DHT22;64044;59.904;10.738;2023-11-18T11:30:23;2.90;57.70
74294;DHT22;64044;59.904;10.738;2023-11-18T11:33:14;3.00;57.80
74294;DHT22;64044;59.904;10.738;2023-11-18T11:35:55;3.10;57.20
74294;DHT22;64044;59.904;10.738;2023-11-18T11:38:25;3.30;57.80
74294;DHT22;64044;59.904;10.738;2023-11-18T11:40:53;3.60;57.90
74294;DHT22;64044;59.904;10.738;2023-11-18T11:43:20;3.80;57.80
74294;DHT22;64044;59.904;10.738;2023-11-18T11:45:54;4.10;57.60
74294;DHT22;64044;59.904;10.738;2023-11-18T11:48:23;4.50;57.20
74294;DHT22;64044;59.904;10.738;2023-11-18T11:53:44;5.30;56.90
74294;DHT22;64044;59.904;10.738;2023-11-18T11:56:11;5.70;56.90
74294;DHT22;64044;59.904;10.738;2023-11-18T11:58:46;6.10;56.20
74294;DHT22;64044;59.904;10.738;2023-11-18T12:01:32;6.50;55.70
74294;DHT22;64044;59.904;10.738;2023-11-18T12:04:03;6.90;54.10
74294;DHT22;64044;59.904;10.738;2023-11-18T12:06:33;7.30;54.60
74294;DHT22;64044;59.904;10.738;2023-11-18T12:09:03;7.60;54.10
74294;DHT22;64044;59.904;10.738;2023-11-18T12:11:36;8.00;53.60
74294;DHT22;64044;59.904;10.738;2023-11-18T12:14:11;8.40;52.40
74294;DHT22;64044;59.904;10.738;2023-11-18T12:17:08;8.70;52.00
74294;DHT22;64044;59.904;10.738;2023-11-18T12:19:41;9.20;51.00
74294;DHT22;64044;59.904;10.738;2023-11-18T12:22:22;9.50;51.30
74294;DHT22;64044;59.904;10.738;2023-11-18T12:27:43;10.20;50.30
74294;DHT22;64044;59.904;10.738;2023-11-18T12:33:00;10.70;48.00
74294;DHT22;64044;59.904;10.738;2023-11-18T12:41:38;11.40;44.00
74294;DHT22;64044;59.904;10.738;2023-11-18T12:46:54;11.70;45.10
74294;DHT22;64044;59.904;10.738;2023-11-18T12:49:24;11.90;43.10
74294;DHT22;64044;59.904;10.738;2023-11-18T12:51:54;12.00;43.70
74294;DHT22;64044;59.904;10.738;2023-11-18T12:54:26;12.00;42.50
74294;DHT22;64044;59.904;10.738;2023-11-18T12:56:54;12.10;41.30
74294;DHT22;64044;59.904;10.738;2023-11-18T12:59:20;12.10;41.00
74294;DHT22;64044;59.904;10.738;2023-11-18T13:01:52;12.00;43.20
74294;DHT22;64044;59.904;10.738;2023-11-18T13:04:24;11.80;41.20
74294;DHT22;64044;59.904;10.738;2023-11-18T13:06:51;11.60;41.70
74294;DHT22;64044;59.904;10.738;2023-11-18T13:09:17;11.40;41.90
74294;DHT22;64044;59.904;10.738;2023-11-18T13:11:59;11.20;41.20
74294;DHT22;64044;59.904;10.738;2023-11-18T13:14:26;11.00;40.90
74294;DHT22;64044;59.904;10.738;2023-11-18T13:16:55;10.70;40.90
74294;DHT22;64044;59.904;10.738;2023-11-18T13:19:27;10.40;40.70
74294;DHT22;64044;59.904;10.738;2023-11-18T13:22:00;10.00;40.00
74294;DHT22;64044;59.904;10.738;2023-11-18T13:24:27;9.70;40.40
74294;DHT22;64044;59.904;10.738;2023-11-18T13:26:57;9.40;41.00
74294;DHT22;64044;59.904;10.738;2023-11-18T13:29:23;8.90;41.00
74294;DHT22;64044;59.904;10.738;2023-11-18T13:31:50;8.60;41.40
74294;DHT22;64044;59.904;10.738;2023-11-18T13:34:19;8.20;41.60
74294;DHT22;64044;59.904;10.738;2023-11-18T13:36:49;7.80;41.40
74294;DHT22;64044;59.904;10.738;2023-11-18T13:39:19;7.40;42.20
74294;DHT22;64044;59.904;10.738;2023-11-18T13:41:51;7.00;42.10
74294;DHT22;64044;59.904;10.738;2023-11-18T13:44:35;6.60;42.40
74294;DHT22;64044;59.904;10.738;2023-11-18T13:47:05;6.10;42.90
74294;DHT22;64044;59.904;10.738;2023-11-18T13:49:32;5.80;43.60
74294;DHT22;64044;59.904;10.738;2023-11-18T13:52:00;5.40;43.80
74294;DHT22;64044;59.904;10.738;2023-11-18T13:54:28;5.00;44.00
74294;DHT22;64044;59.904;10.738;2023-11-18T13:56:58;4.60;44.30
74294;DHT22;64044;59.904;10.738;2023-11-18T13:59:27;4.30;44.70
74294;DHT22;64044;59.904;10.738;2023-11-18T14:01:53;3.90;45.20
74294;DHT22;64044;59.904;10.738;2023-11-18T14:04:26;3.60;45.70
74294;DHT22;64044;59.904;10.738;2023-11-18T14:06:56;3.40;46.20
74294;DHT22;64044;59.904;10.738;2023-11-18T14:09:22;3.10;46.70
74294;DHT22;64044;59.904;10.738;2023-11-18T14:11:51;2.80;47.10
74294;DHT22;64044;59.904;10.738;2023-11-18T14:14:17;2.60;47.40
74294;DHT22;64044;59.904;10.738;2023-11-18T14:16:43;2.40;47.80
74294;DHT22;64044;59.904;10.738;2023-11-18T14:19:09;2.10;48.00
74294;DHT22;64044;59.904;10.738;2023-11-18T14:21:36;1.90;48.30
74294;DHT22;64044;59.904;10.738;2023-11-18T14:24:02;1.70;48.70
74294;DHT22;64044;59.904;10.738;2023-11-18T14:26:29;1.50;49.00
74294;DHT22;64044;59.904;10.738;2023-11-18T14:28:56;1.30;49.70
74294;DHT22;64044;59.904;10.738;2023-11-18T14:31:24;1.10;49.80
74294;DHT22;64044;59.904;10.738;2023-11-18T14:33:50;0.90;49.80
74294;DHT22;64044;59.904;10.738;2023-11-18T14:36:17;0.70;50.10
74294;DHT22;64044;59.904;10.738;2023-11-18T14:38:44;0.60;50.40
74294;DHT22;64044;59.904;10.738;2023-11-18T14:41:10;0.40;50.70
74294;DHT22;64044;59.904;10.738;2023-11-18T14:43:36;0.30;51.40
74294;DHT22;64044;59.904;10.738;2023-11-18T14:46:02;0.10;51.70
74294;DHT22;64044;59.904;10.738;2023-11-18T14:48:29;0.00;51.80
74294;DHT22;64044;59.904;10.738;2023-11-18T14:50:55;-0.10;52.00
74294;DHT22;64044;59.904;10.738;2023-11-18T14:53:22;-0.30;52.20
74294;DHT22;64044;59.904;10.738;2023-11-18T14:55:48;-0.40;52.10
74294;DHT22;64044;59.904;10.738;2023-11-18T14:58:14;-0.50;52.60
74294;DHT22;64044;59.904;10.738;2023-11-18T15:00:40;-0.60;52.50
74294;DHT22;64044;59.904;10.738;2023-11-18T15:03:08;-0.70;52.80
74294;DHT22;64044;59.904;10.738;2023-11-18T15:05:34;-0.90;53.70
74294;DHT22;64044;59.904;10.738;2023-11-18T15:08:00;-0.90;53.60
74294;DHT22;64044;59.904;10.738;2023-11-18T15:10:27;-1.00;54.20
74294;DHT22;64044;59.904;10.738;2023-11-18T15:12:57;-1.10;54.50
74294;DHT22;64044;59.904;10.738;2023-11-18T15:15:28;-1.20;54.50
74294;DHT22;64044;59.904;10.738;2023-11-18T15:17:58;-1.30;54.40
74294;DHT22;64044;59.904;10.738;2023-11-18T15:20:25;-1.40;54.40
74294;DHT22;64044;59.904;10.738;2023-11-18T15:22:51;-1.40;54.50
74294;DHT22;64044;59.904;10.738;2023-11-18T15:25:17;-1.50;54.80
74294;DHT22;64044;59.904;10.738;2023-11-18T15:27:43;-1.60;55.30
74294;DHT22;64044;59.904;10.738;2023-11-18T15:30:12;-1.60;55.50
74294;DHT22;64044;59.904;10.738;2023-11-18T15:32:43;-1.70;55.60
74294;DHT22;64044;59.904;10.738;2023-11-18T15:35:09;-1.70;55.70
74294;DHT22;64044;59.904;10.738;2023-11-18T15:37:39;-1.80;56.90
74294;DHT22;64044;59.904;10.738;2023-11-18T15:40:08;-1.90;56.30
74294;DHT22;64044;59.904;10.738;2023-11-18T15:42:43;-1.90;56.60
74294;DHT22;64044;59.904;10.738;2023-11-18T15:45:16;-2.00;57.00
74294;DHT22;64044;59.904;10.738;2023-11-18T15:47:42;-2.00;57.00
74294;DHT22;64044;59.904;10.738;2023-11-18T15:50:09;-2.10;56.80
74294;DHT22;64044;59.904;10.738;2023-11-18T15:52:47;-2.10;56.50
74294;DHT22;64044;59.904;10.738;2023-11-18T15:55:14;-2.10;57.10
74294;DHT22;64044;59.904;10.738;2023-11-18T15:57:41;-2.20;57.10
74294;DHT22;64044;59.904;10.738;2023-11-18T16:00:08;-2.20;56.80